Weather at Holloman Air Force Base

Public forecast

Using degrees Fahrenheit for public forecast. Weather courtesy of forecast.io.

Current aviation weather report (METAR) for Holloman Air Force Base

Retrieved 2021/09/21 12:58 UTC (34 minutes ago):

KHMN 211258Z AUTO 09006KT 10SM CLR 15/01 A3025 RMK AO2 SLP181 T01450007

Aviation forecast (TAF) for Holloman Air Force Base

Retrieved 2021/09/21 09:03 UTC (4 hours ago):

TAF KHMN 210900Z 2109/2215 02012G20KT 9999 SCT250 QNH3010INS TEMPO 2111/2116 05015G25KT BECMG 2115/2116 05012G18KT 9999 FEW250 QNH3028INS BECMG 2121/2122 30010G15KT 9999 SKC QNH3030INS TEMPO 2202/2206 12015G25KT BECMG 2205/2206 VRB06KT 9999 FEW250 QNH3041INS TX30/2122Z TN14/2112Z